Terminal Aerodrome Forecast
Issued by NWS

Home | Current Version | Previous Version | Graphics & Text | Print | Product List | Glossary On
Versions: 1 2 3 4 5 6 7 8 9 10 11 12 13 14 15 16 17 18 19 20 21 22 23 24
017
FTUS43 KBIS 131421 AAA
TAFDIK
TAF AMD
KDIK 131421Z 1314/1412 15018G24KT P6SM BKN012 OVC020
      TEMPO 1314/1316 1SM -SN BKN008
     FM131900 17016KT 4SM -FZRAPL OVC012
     FM132200 18012KT 2SM -RASN OVC010
     FM140000 20011KT 2SM -SN OVC008 WS005/31010KT
     FM140300 26012KT P6SM VCSH OVC015 WS010/33035KT
     FM140500 29016KT P6SM OVC010=

USA.gov is the U.S. government's official web portal to all federal, state and local government web resources and services.